sensor_id;sensor_type;location;lat;lon;timestamp;P1;durP1;ratioP1;P2;durP2;ratioP2
12110;SDS011;6119;52.372;8.990;2023-04-01T00:01:44;2.47;;;1.20;;
12110;SDS011;6119;52.372;8.990;2023-04-01T00:04:32;1.57;;;1.00;;
12110;SDS011;6119;52.372;8.990;2023-04-01T00:07:19;1.90;;;1.10;;
12110;SDS011;6119;52.372;8.990;2023-04-01T00:10:06;1.87;;;0.97;;
12110;SDS011;6119;52.372;8.990;2023-04-01T00:12:54;2.63;;;1.00;;
12110;SDS011;6119;52.372;8.990;2023-04-01T00:15:41;3.57;;;0.90;;
12110;SDS011;6119;52.372;8.990;2023-04-01T00:18:29;1.77;;;0.90;;
12110;SDS011;6119;52.372;8.990;2023-04-01T00:21:17;1.67;;;0.90;;
12110;SDS011;6119;52.372;8.990;2023-04-01T00:24:05;1.10;;;0.90;;
12110;SDS011;6119;52.372;8.990;2023-04-01T00:26:52;1.10;;;0.90;;
12110;SDS011;6119;52.372;8.990;2023-04-01T00:29:41;1.10;;;1.00;;
12110;SDS011;6119;52.372;8.990;2023-04-01T00:32:27;1.87;;;1.47;;
12110;SDS011;6119;52.372;8.990;2023-04-01T00:35:15;1.30;;;1.20;;
12110;SDS011;6119;52.372;8.990;2023-04-01T00:38:03;2.70;;;1.20;;
12110;SDS011;6119;52.372;8.990;2023-04-01T00:40:50;2.90;;;1.20;;
12110;SDS011;6119;52.372;8.990;2023-04-01T00:43:44;2.13;;;1.30;;
12110;SDS011;6119;52.372;8.990;2023-04-01T00:46:31;1.40;;;1.30;;
12110;SDS011;6119;52.372;8.990;2023-04-01T00:49:20;1.43;;;1.30;;
12110;SDS011;6119;52.372;8.990;2023-04-01T00:52:12;3.13;;;1.30;;
12110;SDS011;6119;52.372;8.990;2023-04-01T00:55:04;3.07;;;1.10;;
12110;SDS011;6119;52.372;8.990;2023-04-01T00:57:54;1.27;;;1.10;;
12110;SDS011;6119;52.372;8.990;2023-04-01T01:00:43;1.23;;;1.10;;
12110;SDS011;6119;52.372;8.990;2023-04-01T01:03:31;1.20;;;1.10;;
12110;SDS011;6119;52.372;8.990;2023-04-01T01:06:22;2.13;;;1.13;;
12110;SDS011;6119;52.372;8.990;2023-04-01T01:09:23;1.33;;;1.10;;
12110;SDS011;6119;52.372;8.990;2023-04-01T01:12:18;1.87;;;1.43;;
12110;SDS011;6119;52.372;8.990;2023-04-01T01:15:11;3.50;;;1.30;;
12110;SDS011;6119;52.372;8.990;2023-04-01T01:18:01;1.10;;;1.00;;
12110;SDS011;6119;52.372;8.990;2023-04-01T01:24:08;2.17;;;1.20;;
12110;SDS011;6119;52.372;8.990;2023-04-01T01:27:28;1.30;;;1.07;;
12110;SDS011;6119;52.372;8.990;2023-04-01T01:30:21;2.53;;;1.30;;
12110;SDS011;6119;52.372;8.990;2023-04-01T01:33:32;1.80;;;1.17;;
12110;SDS011;6119;52.372;8.990;2023-04-01T01:36:32;1.93;;;1.20;;
12110;SDS011;6119;52.372;8.990;2023-04-01T01:39:20;1.43;;;1.23;;
12110;SDS011;6119;52.372;8.990;2023-04-01T01:42:13;1.70;;;1.30;;
12110;SDS011;6119;52.372;8.990;2023-04-01T01:45:02;1.60;;;1.10;;
12110;SDS011;6119;52.372;8.990;2023-04-01T01:47:51;1.70;;;0.93;;
12110;SDS011;6119;52.372;8.990;2023-04-01T01:50:39;2.23;;;0.73;;
12110;SDS011;6119;52.372;8.990;2023-04-01T01:53:28;1.57;;;0.90;;
12110;SDS011;6119;52.372;8.990;2023-04-01T01:56:14;2.03;;;0.97;;
12110;SDS011;6119;52.372;8.990;2023-04-01T01:59:03;1.43;;;0.80;;
12110;SDS011;6119;52.372;8.990;2023-04-01T02:01:55;2.47;;;0.90;;
12110;SDS011;6119;52.372;8.990;2023-04-01T02:04:44;2.03;;;0.90;;
12110;SDS011;6119;52.372;8.990;2023-04-01T02:07:33;2.43;;;1.07;;
12110;SDS011;6119;52.372;8.990;2023-04-01T02:10:24;1.20;;;0.60;;
12110;SDS011;6119;52.372;8.990;2023-04-01T02:13:13;1.10;;;0.63;;
12110;SDS011;6119;52.372;8.990;2023-04-01T02:16:05;2.10;;;0.90;;
12110;SDS011;6119;52.372;8.990;2023-04-01T02:18:59;1.57;;;0.87;;
12110;SDS011;6119;52.372;8.990;2023-04-01T02:21:47;2.13;;;1.10;;
12110;SDS011;6119;52.372;8.990;2023-04-01T02:24:36;3.07;;;1.00;;
12110;SDS011;6119;52.372;8.990;2023-04-01T02:27:27;0.87;;;0.73;;
12110;SDS011;6119;52.372;8.990;2023-04-01T02:30:15;1.07;;;0.80;;
12110;SDS011;6119;52.372;8.990;2023-04-01T02:33:03;0.77;;;0.77;;
12110;SDS011;6119;52.372;8.990;2023-04-01T02:35:51;0.60;;;0.60;;
12110;SDS011;6119;52.372;8.990;2023-04-01T02:38:37;0.73;;;0.70;;
12110;SDS011;6119;52.372;8.990;2023-04-01T02:41:24;2.77;;;0.93;;
12110;SDS011;6119;52.372;8.990;2023-04-01T02:44:13;1.20;;;0.80;;
12110;SDS011;6119;52.372;8.990;2023-04-01T02:47:01;3.37;;;1.03;;
12110;SDS011;6119;52.372;8.990;2023-04-01T02:49:48;2.03;;;1.07;;
12110;SDS011;6119;52.372;8.990;2023-04-01T02:52:35;0.83;;;0.60;;
12110;SDS011;6119;52.372;8.990;2023-04-01T02:55:22;0.63;;;0.57;;
12110;SDS011;6119;52.372;8.990;2023-04-01T02:58:08;2.67;;;1.70;;
12110;SDS011;6119;52.372;8.990;2023-04-01T03:00:56;2.43;;;1.20;;
12110;SDS011;6119;52.372;8.990;2023-04-01T03:03:43;1.63;;;0.90;;
12110;SDS011;6119;52.372;8.990;2023-04-01T03:06:30;1.70;;;0.90;;
12110;SDS011;6119;52.372;8.990;2023-04-01T03:09:16;1.03;;;0.70;;
12110;SDS011;6119;52.372;8.990;2023-04-01T03:12:03;1.97;;;1.20;;
12110;SDS011;6119;52.372;8.990;2023-04-01T03:14:49;1.10;;;1.00;;
12110;SDS011;6119;52.372;8.990;2023-04-01T03:17:37;2.30;;;0.50;;
12110;SDS011;6119;52.372;8.990;2023-04-01T03:20:24;1.27;;;0.60;;
12110;SDS011;6119;52.372;8.990;2023-04-01T03:23:10;1.40;;;0.40;;
12110;SDS011;6119;52.372;8.990;2023-04-01T03:25:58;2.47;;;0.50;;
12110;SDS011;6119;52.372;8.990;2023-04-01T03:28:44;1.37;;;0.60;;
12110;SDS011;6119;52.372;8.990;2023-04-01T03:31:30;0.50;;;0.50;;
12110;SDS011;6119;52.372;8.990;2023-04-01T03:34:19;1.57;;;0.70;;
12110;SDS011;6119;52.372;8.990;2023-04-01T03:37:05;0.40;;;0.40;;
12110;SDS011;6119;52.372;8.990;2023-04-01T03:39:51;0.90;;;0.60;;
12110;SDS011;6119;52.372;8.990;2023-04-01T03:42:38;2.63;;;0.63;;
12110;SDS011;6119;52.372;8.990;2023-04-01T03:45:25;1.30;;;0.40;;
12110;SDS011;6119;52.372;8.990;2023-04-01T03:48:11;1.03;;;0.60;;
12110;SDS011;6119;52.372;8.990;2023-04-01T03:50:59;1.23;;;0.60;;
12110;SDS011;6119;52.372;8.990;2023-04-01T03:53:46;0.97;;;0.67;;
12110;SDS011;6119;52.372;8.990;2023-04-01T03:56:32;1.27;;;0.80;;
12110;SDS011;6119;52.372;8.990;2023-04-01T03:59:19;1.00;;;0.40;;
12110;SDS011;6119;52.372;8.990;2023-04-01T04:02:06;1.23;;;0.40;;
12110;SDS011;6119;52.372;8.990;2023-04-01T04:04:53;1.80;;;0.43;;
12110;SDS011;6119;52.372;8.990;2023-04-01T04:07:41;0.40;;;0.40;;
12110;SDS011;6119;52.372;8.990;2023-04-01T04:10:27;0.60;;;0.60;;
12110;SDS011;6119;52.372;8.990;2023-04-01T04:13:14;1.97;;;0.43;;
12110;SDS011;6119;52.372;8.990;2023-04-01T04:16:00;0.60;;;0.60;;
12110;SDS011;6119;52.372;8.990;2023-04-01T04:18:47;1.20;;;0.70;;
12110;SDS011;6119;52.372;8.990;2023-04-01T04:21:35;0.73;;;0.50;;
12110;SDS011;6119;52.372;8.990;2023-04-01T04:24:23;0.60;;;0.60;;
12110;SDS011;6119;52.372;8.990;2023-04-01T04:27:10;1.30;;;0.30;;
12110;SDS011;6119;52.372;8.990;2023-04-01T04:29:56;0.30;;;0.30;;
12110;SDS011;6119;52.372;8.990;2023-04-01T04:32:43;1.10;;;0.60;;
12110;SDS011;6119;52.372;8.990;2023-04-01T04:35:29;6.40;;;0.70;;
12110;SDS011;6119;52.372;8.990;2023-04-01T04:38:16;0.70;;;0.70;;
12110;SDS011;6119;52.372;8.990;2023-04-01T04:41:04;2.20;;;0.50;;
12110;SDS011;6119;52.372;8.990;2023-04-01T04:43:55;1.80;;;0.43;;
12110;SDS011;6119;52.372;8.990;2023-04-01T04:46:43;0.70;;;0.60;;
12110;SDS011;6119;52.372;8.990;2023-04-01T04:49:30;0.77;;;0.50;;
12110;SDS011;6119;52.372;8.990;2023-04-01T04:52:17;1.93;;;0.40;;
12110;SDS011;6119;52.372;8.990;2023-04-01T04:55:03;1.97;;;0.50;;
12110;SDS011;6119;52.372;8.990;2023-04-01T04:57:52;1.60;;;0.60;;
12110;SDS011;6119;52.372;8.990;2023-04-01T05:00:39;1.60;;;0.50;;
12110;SDS011;6119;52.372;8.990;2023-04-01T05:03:25;1.13;;;0.63;;
12110;SDS011;6119;52.372;8.990;2023-04-01T05:06:13;1.37;;;0.60;;
12110;SDS011;6119;52.372;8.990;2023-04-01T05:09:00;0.50;;;0.50;;
12110;SDS011;6119;52.372;8.990;2023-04-01T05:11:47;2.00;;;0.53;;
12110;SDS011;6119;52.372;8.990;2023-04-01T05:14:35;0.57;;;0.43;;
12110;SDS011;6119;52.372;8.990;2023-04-01T05:17:21;1.50;;;0.40;;
12110;SDS011;6119;52.372;8.990;2023-04-01T05:20:08;1.60;;;0.70;;
12110;SDS011;6119;52.372;8.990;2023-04-01T05:22:57;0.93;;;0.37;;
12110;SDS011;6119;52.372;8.990;2023-04-01T05:25:45;2.87;;;0.50;;
12110;SDS011;6119;52.372;8.990;2023-04-01T05:28:31;6.00;;;1.10;;
12110;SDS011;6119;52.372;8.990;2023-04-01T05:31:19;0.50;;;0.50;;
12110;SDS011;6119;52.372;8.990;2023-04-01T05:34:06;1.40;;;0.50;;
12110;SDS011;6119;52.372;8.990;2023-04-01T05:36:52;1.03;;;0.53;;
12110;SDS011;6119;52.372;8.990;2023-04-01T05:39:39;0.77;;;0.50;;
12110;SDS011;6119;52.372;8.990;2023-04-01T05:42:25;0.67;;;0.50;;
12110;SDS011;6119;52.372;8.990;2023-04-01T05:45:11;1.63;;;0.70;;
12110;SDS011;6119;52.372;8.990;2023-04-01T05:48:01;0.63;;;0.63;;
12110;SDS011;6119;52.372;8.990;2023-04-01T05:50:48;2.43;;;0.60;;
12110;SDS011;6119;52.372;8.990;2023-04-01T05:53:35;0.47;;;0.40;;
12110;SDS011;6119;52.372;8.990;2023-04-01T05:56:21;0.50;;;0.50;;
12110;SDS011;6119;52.372;8.990;2023-04-01T05:59:09;0.73;;;0.53;;
12110;SDS011;6119;52.372;8.990;2023-04-01T06:01:56;0.30;;;0.30;;
12110;SDS011;6119;52.372;8.990;2023-04-01T06:04:45;0.63;;;0.60;;
12110;SDS011;6119;52.372;8.990;2023-04-01T06:07:32;0.70;;;0.70;;
12110;SDS011;6119;52.372;8.990;2023-04-01T06:10:19;1.33;;;0.40;;
12110;SDS011;6119;52.372;8.990;2023-04-01T06:13:09;1.17;;;0.40;;
12110;SDS011;6119;52.372;8.990;2023-04-01T06:16:05;0.67;;;0.50;;
12110;SDS011;6119;52.372;8.990;2023-04-01T06:19:01;2.73;;;0.57;;
12110;SDS011;6119;52.372;8.990;2023-04-01T06:25:31;1.20;;;0.73;;
12110;SDS011;6119;52.372;8.990;2023-04-01T06:28:38;1.60;;;0.57;;
12110;SDS011;6119;52.372;8.990;2023-04-01T06:31:36;1.73;;;0.60;;
12110;SDS011;6119;52.372;8.990;2023-04-01T06:34:50;0.50;;;0.50;;
12110;SDS011;6119;52.372;8.990;2023-04-01T06:37:58;1.33;;;0.50;;
12110;SDS011;6119;52.372;8.990;2023-04-01T06:41:07;0.60;;;0.60;;
12110;SDS011;6119;52.372;8.990;2023-04-01T06:44:14;2.80;;;1.10;;
12110;SDS011;6119;52.372;8.990;2023-04-01T06:47:17;0.57;;;0.47;;
12110;SDS011;6119;52.372;8.990;2023-04-01T06:50:13;0.60;;;0.60;;
12110;SDS011;6119;52.372;8.990;2023-04-01T06:53:09;0.63;;;0.60;;
12110;SDS011;6119;52.372;8.990;2023-04-01T06:56:05;0.60;;;0.60;;
12110;SDS011;6119;52.372;8.990;2023-04-01T06:58:55;0.30;;;0.30;;
12110;SDS011;6119;52.372;8.990;2023-04-01T07:01:45;0.40;;;0.40;;
12110;SDS011;6119;52.372;8.990;2023-04-01T07:04:36;2.60;;;0.70;;
12110;SDS011;6119;52.372;8.990;2023-04-01T07:07:26;1.03;;;0.60;;
12110;SDS011;6119;52.372;8.990;2023-04-01T07:10:23;1.23;;;0.33;;
12110;SDS011;6119;52.372;8.990;2023-04-01T07:13:18;1.87;;;0.43;;
12110;SDS011;6119;52.372;8.990;2023-04-01T07:16:11;0.37;;;0.37;;
12110;SDS011;6119;52.372;8.990;2023-04-01T07:19:02;0.40;;;0.40;;
12110;SDS011;6119;52.372;8.990;2023-04-01T07:21:52;2.30;;;0.70;;
12110;SDS011;6119;52.372;8.990;2023-04-01T07:24:43;0.63;;;0.50;;
12110;SDS011;6119;52.372;8.990;2023-04-01T07:27:32;0.43;;;0.43;;
12110;SDS011;6119;52.372;8.990;2023-04-01T07:30:20;1.13;;;0.40;;
12110;SDS011;6119;52.372;8.990;2023-04-01T07:33:11;0.67;;;0.60;;
12110;SDS011;6119;52.372;8.990;2023-04-01T07:36:02;0.30;;;0.30;;
12110;SDS011;6119;52.372;8.990;2023-04-01T07:38:57;1.47;;;0.50;;
12110;SDS011;6119;52.372;8.990;2023-04-01T07:41:51;0.40;;;0.40;;
12110;SDS011;6119;52.372;8.990;2023-04-01T07:44:47;1.00;;;0.50;;
12110;SDS011;6119;52.372;8.990;2023-04-01T07:47:54;1.20;;;0.50;;
12110;SDS011;6119;52.372;8.990;2023-04-01T07:50:51;2.10;;;0.60;;
12110;SDS011;6119;52.372;8.990;2023-04-01T07:53:43;1.40;;;0.63;;
12110;SDS011;6119;52.372;8.990;2023-04-01T07:56:36;1.53;;;0.47;;
12110;SDS011;6119;52.372;8.990;2023-04-01T07:59:30;2.07;;;0.70;;
12110;SDS011;6119;52.372;8.990;2023-04-01T08:02:27;1.40;;;0.70;;
12110;SDS011;6119;52.372;8.990;2023-04-01T08:05:22;0.77;;;0.40;;
12110;SDS011;6119;52.372;8.990;2023-04-01T08:08:14;1.63;;;1.13;;
12110;SDS011;6119;52.372;8.990;2023-04-01T08:11:08;1.87;;;1.10;;
12110;SDS011;6119;52.372;8.990;2023-04-01T08:14:03;0.80;;;0.80;;
12110;SDS011;6119;52.372;8.990;2023-04-01T08:17:00;0.93;;;0.60;;
12110;SDS011;6119;52.372;8.990;2023-04-01T08:20:05;1.57;;;0.60;;
12110;SDS011;6119;52.372;8.990;2023-04-01T08:23:01;0.73;;;0.37;;
12110;SDS011;6119;52.372;8.990;2023-04-01T08:25:53;1.25;;;0.60;;
12110;SDS011;6119;52.372;8.990;2023-04-01T08:28:44;1.03;;;0.50;;
12110;SDS011;6119;52.372;8.990;2023-04-01T08:31:37;0.63;;;0.60;;
12110;SDS011;6119;52.372;8.990;2023-04-01T08:34:32;2.53;;;0.60;;
12110;SDS011;6119;52.372;8.990;2023-04-01T08:37:25;1.70;;;1.00;;
12110;SDS011;6119;52.372;8.990;2023-04-01T08:40:22;0.60;;;0.60;;
12110;SDS011;6119;52.372;8.990;2023-04-01T08:43:33;0.80;;;0.57;;
12110;SDS011;6119;52.372;8.990;2023-04-01T08:50:26;0.50;;;0.50;;
12110;SDS011;6119;52.372;8.990;2023-04-01T08:53:42;1.27;;;0.73;;
12110;SDS011;6119;52.372;8.990;2023-04-01T08:56:36;0.50;;;0.50;;
12110;SDS011;6119;52.372;8.990;2023-04-01T08:59:34;0.60;;;0.60;;
12110;SDS011;6119;52.372;8.990;2023-04-01T09:02:45;1.67;;;0.60;;
12110;SDS011;6119;52.372;8.990;2023-04-01T09:05:47;0.60;;;0.60;;
12110;SDS011;6119;52.372;8.990;2023-04-01T09:12:43;0.67;;;0.67;;
12110;SDS011;6119;52.372;8.990;2023-04-01T09:19:14;0.50;;;0.50;;
12110;SDS011;6119;52.372;8.990;2023-04-01T09:22:14;0.40;;;0.40;;
12110;SDS011;6119;52.372;8.990;2023-04-01T09:25:27;0.53;;;0.53;;
12110;SDS011;6119;52.372;8.990;2023-04-01T09:28:26;1.40;;;0.90;;
12110;SDS011;6119;52.372;8.990;2023-04-01T09:31:22;0.73;;;0.60;;
12110;SDS011;6119;52.372;8.990;2023-04-01T09:34:30;0.57;;;0.57;;
12110;SDS011;6119;52.372;8.990;2023-04-01T09:37:34;0.60;;;0.60;;
12110;SDS011;6119;52.372;8.990;2023-04-01T09:40:24;0.60;;;0.60;;
12110;SDS011;6119;52.372;8.990;2023-04-01T09:43:26;0.80;;;0.70;;
12110;SDS011;6119;52.372;8.990;2023-04-01T09:46:15;0.50;;;0.50;;
12110;SDS011;6119;52.372;8.990;2023-04-01T09:49:29;1.03;;;0.50;;
12110;SDS011;6119;52.372;8.990;2023-04-01T09:52:26;0.80;;;0.57;;
12110;SDS011;6119;52.372;8.990;2023-04-01T09:55:38;0.60;;;0.60;;
12110;SDS011;6119;52.372;8.990;2023-04-01T10:02:33;0.30;;;0.30;;
12110;SDS011;6119;52.372;8.990;2023-04-01T10:06:02;0.53;;;0.53;;
12110;SDS011;6119;52.372;8.990;2023-04-01T10:09:23;1.77;;;0.57;;
12110;SDS011;6119;52.372;8.990;2023-04-01T10:12:37;1.83;;;0.50;;
12110;SDS011;6119;52.372;8.990;2023-04-01T10:19:19;1.47;;;0.60;;
12110;SDS011;6119;52.372;8.990;2023-04-01T10:22:37;0.67;;;0.67;;
12110;SDS011;6119;52.372;8.990;2023-04-01T10:25:51;0.67;;;0.67;;
12110;SDS011;6119;52.372;8.990;2023-04-01T10:28:59;2.10;;;0.77;;
12110;SDS011;6119;52.372;8.990;2023-04-01T10:32:15;1.03;;;0.70;;
12110;SDS011;6119;52.372;8.990;2023-04-01T10:35:44;0.80;;;0.80;;
12110;SDS011;6119;52.372;8.990;2023-04-01T10:38:58;0.77;;;0.70;;
12110;SDS011;6119;52.372;8.990;2023-04-01T10:52:51;1.57;;;1.10;;
12110;SDS011;6119;52.372;8.990;2023-04-01T10:59:36;0.80;;;0.80;;
12110;SDS011;6119;52.372;8.990;2023-04-01T11:06:49;2.23;;;1.00;;
12110;SDS011;6119;52.372;8.990;2023-04-01T11:20:18;1.00;;;1.00;;
12110;SDS011;6119;52.372;8.990;2023-04-01T11:23:42;1.60;;;1.50;;
12110;SDS011;6119;52.372;8.990;2023-04-01T11:27:02;2.40;;;1.17;;
12110;SDS011;6119;52.372;8.990;2023-04-01T11:30:05;2.13;;;1.10;;
12110;SDS011;6119;52.372;8.990;2023-04-01T11:33:03;1.30;;;1.20;;
12110;SDS011;6119;52.372;8.990;2023-04-01T11:36:00;1.10;;;1.00;;
12110;SDS011;6119;52.372;8.990;2023-04-01T11:39:05;1.93;;;0.90;;
12110;SDS011;6119;52.372;8.990;2023-04-01T11:42:14;0.97;;;0.97;;
12110;SDS011;6119;52.372;8.990;2023-04-01T11:45:16;2.13;;;0.80;;
12110;SDS011;6119;52.372;8.990;2023-04-01T11:48:19;1.00;;;0.70;;
12110;SDS011;6119;52.372;8.990;2023-04-01T11:51:30;0.90;;;0.80;;
12110;SDS011;6119;52.372;8.990;2023-04-01T11:54:35;1.00;;;0.93;;
12110;SDS011;6119;52.372;8.990;2023-04-01T11:57:42;2.23;;;0.90;;
12110;SDS011;6119;52.372;8.990;2023-04-01T12:00:44;3.60;;;0.80;;
12110;SDS011;6119;52.372;8.990;2023-04-01T12:07:19;0.93;;;0.40;;
12110;SDS011;6119;52.372;8.990;2023-04-01T12:10:13;0.47;;;0.30;;
12110;SDS011;6119;52.372;8.990;2023-04-01T12:13:04;0.30;;;0.30;;
12110;SDS011;6119;52.372;8.990;2023-04-01T12:16:04;0.40;;;0.40;;
12110;SDS011;6119;52.372;8.990;2023-04-01T12:19:15;0.30;;;0.30;;
12110;SDS011;6119;52.372;8.990;2023-04-01T12:22:19;0.30;;;0.30;;
12110;SDS011;6119;52.372;8.990;2023-04-01T12:25:20;0.50;;;0.50;;
12110;SDS011;6119;52.372;8.990;2023-04-01T12:28:15;0.40;;;0.40;;
12110;SDS011;6119;52.372;8.990;2023-04-01T12:31:14;0.30;;;0.30;;
12110;SDS011;6119;52.372;8.990;2023-04-01T12:34:17;0.43;;;0.43;;
12110;SDS011;6119;52.372;8.990;2023-04-01T12:37:24;0.30;;;0.30;;
12110;SDS011;6119;52.372;8.990;2023-04-01T12:40:20;0.30;;;0.30;;
12110;SDS011;6119;52.372;8.990;2023-04-01T12:43:28;0.50;;;0.50;;
12110;SDS011;6119;52.372;8.990;2023-04-01T12:46:54;1.10;;;0.57;;
12110;SDS011;6119;52.372;8.990;2023-04-01T12:50:10;0.50;;;0.50;;
12110;SDS011;6119;52.372;8.990;2023-04-01T12:53:14;1.83;;;0.33;;
12110;SDS011;6119;52.372;8.990;2023-04-01T12:56:21;1.03;;;0.60;;
12110;SDS011;6119;52.372;8.990;2023-04-01T12:59:32;1.77;;;0.90;;
12110;SDS011;6119;52.372;8.990;2023-04-01T13:02:38;0.50;;;0.50;;
12110;SDS011;6119;52.372;8.990;2023-04-01T13:05:41;0.60;;;0.60;;
12110;SDS011;6119;52.372;8.990;2023-04-01T13:08:45;0.60;;;0.60;;
12110;SDS011;6119;52.372;8.990;2023-04-01T13:11:40;0.57;;;0.57;;
12110;SDS011;6119;52.372;8.990;2023-04-01T13:14:50;0.70;;;0.70;;
12110;SDS011;6119;52.372;8.990;2023-04-01T13:17:58;1.37;;;1.10;;
12110;SDS011;6119;52.372;8.990;2023-04-01T13:20:59;1.07;;;0.90;;
12110;SDS011;6119;52.372;8.990;2023-04-01T13:23:55;1.07;;;0.93;;
12110;SDS011;6119;52.372;8.990;2023-04-01T13:26:50;1.03;;;0.93;;
12110;SDS011;6119;52.372;8.990;2023-04-01T13:29:43;3.33;;;0.97;;
12110;SDS011;6119;52.372;8.990;2023-04-01T13:32:39;0.97;;;0.80;;
12110;SDS011;6119;52.372;8.990;2023-04-01T13:35:33;0.83;;;0.80;;
12110;SDS011;6119;52.372;8.990;2023-04-01T13:41:54;2.83;;;0.70;;
12110;SDS011;6119;52.372;8.990;2023-04-01T13:44:51;0.80;;;0.80;;
12110;SDS011;6119;52.372;8.990;2023-04-01T13:51:16;1.47;;;0.70;;
12110;SDS011;6119;52.372;8.990;2023-04-01T13:57:43;0.77;;;0.63;;
12110;SDS011;6119;52.372;8.990;2023-04-01T14:00:44;0.57;;;0.57;;
12110;SDS011;6119;52.372;8.990;2023-04-01T14:07:00;0.80;;;0.80;;
12110;SDS011;6119;52.372;8.990;2023-04-01T14:09:59;1.47;;;0.77;;
12110;SDS011;6119;52.372;8.990;2023-04-01T14:12:58;0.80;;;0.80;;
12110;SDS011;6119;52.372;8.990;2023-04-01T14:15:53;1.10;;;1.10;;
12110;SDS011;6119;52.372;8.990;2023-04-01T14:18:53;1.33;;;1.20;;
12110;SDS011;6119;52.372;8.990;2023-04-01T14:21:56;1.67;;;0.90;;
12110;SDS011;6119;52.372;8.990;2023-04-01T14:24:53;1.70;;;1.17;;
12110;SDS011;6119;52.372;8.990;2023-04-01T14:27:57;2.30;;;1.60;;
12110;SDS011;6119;52.372;8.990;2023-04-01T14:30:59;2.27;;;1.50;;
12110;SDS011;6119;52.372;8.990;2023-04-01T14:34:05;1.60;;;0.90;;
12110;SDS011;6119;52.372;8.990;2023-04-01T14:37:04;0.77;;;0.77;;
12110;SDS011;6119;52.372;8.990;2023-04-01T14:40:10;0.70;;;0.70;;
12110;SDS011;6119;52.372;8.990;2023-04-01T14:43:22;0.80;;;0.80;;
12110;SDS011;6119;52.372;8.990;2023-04-01T14:46:50;0.80;;;0.70;;
12110;SDS011;6119;52.372;8.990;2023-04-01T14:50:12;0.60;;;0.60;;
12110;SDS011;6119;52.372;8.990;2023-04-01T14:53:11;0.50;;;0.50;;
12110;SDS011;6119;52.372;8.990;2023-04-01T14:55:59;0.57;;;0.57;;
12110;SDS011;6119;52.372;8.990;2023-04-01T14:58:49;1.40;;;0.77;;
12110;SDS011;6119;52.372;8.990;2023-04-01T15:01:45;0.90;;;0.90;;
12110;SDS011;6119;52.372;8.990;2023-04-01T15:04:55;0.60;;;0.57;;
12110;SDS011;6119;52.372;8.990;2023-04-01T15:11:05;0.47;;;0.47;;
12110;SDS011;6119;52.372;8.990;2023-04-01T15:17:32;0.70;;;0.70;;
12110;SDS011;6119;52.372;8.990;2023-04-01T15:20:40;0.90;;;0.90;;
12110;SDS011;6119;52.372;8.990;2023-04-01T15:23:41;0.80;;;0.80;;
12110;SDS011;6119;52.372;8.990;2023-04-01T15:26:42;0.90;;;0.90;;
12110;SDS011;6119;52.372;8.990;2023-04-01T15:33:07;0.90;;;0.90;;
12110;SDS011;6119;52.372;8.990;2023-04-01T15:36:07;1.40;;;1.30;;
12110;SDS011;6119;52.372;8.990;2023-04-01T15:39:09;1.40;;;1.30;;
12110;SDS011;6119;52.372;8.990;2023-04-01T15:42:08;0.90;;;0.90;;
12110;SDS011;6119;52.372;8.990;2023-04-01T15:45:05;0.70;;;0.70;;
12110;SDS011;6119;52.372;8.990;2023-04-01T15:48:01;0.97;;;0.83;;
12110;SDS011;6119;52.372;8.990;2023-04-01T15:50:57;0.73;;;0.73;;
12110;SDS011;6119;52.372;8.990;2023-04-01T15:53:56;0.60;;;0.60;;
12110;SDS011;6119;52.372;8.990;2023-04-01T15:57:04;0.60;;;0.60;;
12110;SDS011;6119;52.372;8.990;2023-04-01T16:00:06;0.70;;;0.70;;
12110;SDS011;6119;52.372;8.990;2023-04-01T16:09:37;0.70;;;0.70;;
12110;SDS011;6119;52.372;8.990;2023-04-01T16:12:33;0.70;;;0.70;;
12110;SDS011;6119;52.372;8.990;2023-04-01T16:15:37;0.60;;;0.60;;
12110;SDS011;6119;52.372;8.990;2023-04-01T16:18:36;0.70;;;0.70;;
12110;SDS011;6119;52.372;8.990;2023-04-01T16:21:36;0.80;;;0.80;;
12110;SDS011;6119;52.372;8.990;2023-04-01T16:24:30;0.60;;;0.60;;
12110;SDS011;6119;52.372;8.990;2023-04-01T16:27:24;0.70;;;0.70;;
12110;SDS011;6119;52.372;8.990;2023-04-01T16:30:25;0.80;;;0.80;;
12110;SDS011;6119;52.372;8.990;2023-04-01T16:33:21;1.00;;;0.90;;
12110;SDS011;6119;52.372;8.990;2023-04-01T16:36:20;0.80;;;0.70;;
12110;SDS011;6119;52.372;8.990;2023-04-01T16:39:18;0.83;;;0.70;;
12110;SDS011;6119;52.372;8.990;2023-04-01T16:42:19;0.50;;;0.50;;
12110;SDS011;6119;52.372;8.990;2023-04-01T16:45:24;0.70;;;0.70;;
12110;SDS011;6119;52.372;8.990;2023-04-01T16:48:20;0.63;;;0.60;;
12110;SDS011;6119;52.372;8.990;2023-04-01T16:51:15;0.60;;;0.60;;
12110;SDS011;6119;52.372;8.990;2023-04-01T16:54:04;0.80;;;0.80;;
12110;SDS011;6119;52.372;8.990;2023-04-01T16:57:01;0.80;;;0.80;;
12110;SDS011;6119;52.372;8.990;2023-04-01T16:59:54;0.67;;;0.67;;
12110;SDS011;6119;52.372;8.990;2023-04-01T17:02:47;1.23;;;1.13;;
12110;SDS011;6119;52.372;8.990;2023-04-01T17:05:42;2.37;;;1.13;;
12110;SDS011;6119;52.372;8.990;2023-04-01T17:08:48;0.70;;;0.70;;
12110;SDS011;6119;52.372;8.990;2023-04-01T17:11:49;0.50;;;0.50;;
12110;SDS011;6119;52.372;8.990;2023-04-01T17:14:42;0.50;;;0.50;;
12110;SDS011;6119;52.372;8.990;2023-04-01T17:17:38;3.37;;;0.70;;
12110;SDS011;6119;52.372;8.990;2023-04-01T17:20:36;0.70;;;0.70;;
12110;SDS011;6119;52.372;8.990;2023-04-01T17:23:30;1.10;;;0.87;;
12110;SDS011;6119;52.372;8.990;2023-04-01T17:26:22;0.60;;;0.60;;
12110;SDS011;6119;52.372;8.990;2023-04-01T17:29:18;0.60;;;0.60;;
12110;SDS011;6119;52.372;8.990;2023-04-01T17:32:11;0.50;;;0.50;;
12110;SDS011;6119;52.372;8.990;2023-04-01T17:35:05;0.40;;;0.40;;
12110;SDS011;6119;52.372;8.990;2023-04-01T17:38:03;0.60;;;0.40;;
12110;SDS011;6119;52.372;8.990;2023-04-01T17:41:00;0.60;;;0.60;;
12110;SDS011;6119;52.372;8.990;2023-04-01T17:43:55;0.50;;;0.50;;
12110;SDS011;6119;52.372;8.990;2023-04-01T17:50:07;0.50;;;0.50;;
12110;SDS011;6119;52.372;8.990;2023-04-01T17:53:11;0.43;;;0.43;;
12110;SDS011;6119;52.372;8.990;2023-04-01T17:56:11;0.67;;;0.67;;
12110;SDS011;6119;52.372;8.990;2023-04-01T17:59:07;0.50;;;0.50;;
12110;SDS011;6119;52.372;8.990;2023-04-01T18:02:03;0.70;;;0.70;;
12110;SDS011;6119;52.372;8.990;2023-04-01T18:05:02;0.70;;;0.70;;
12110;SDS011;6119;52.372;8.990;2023-04-01T18:08:13;0.60;;;0.60;;
12110;SDS011;6119;52.372;8.990;2023-04-01T18:11:05;2.03;;;0.90;;
12110;SDS011;6119;52.372;8.990;2023-04-01T18:14:01;2.40;;;0.70;;
12110;SDS011;6119;52.372;8.990;2023-04-01T18:17:08;1.07;;;0.63;;
12110;SDS011;6119;52.372;8.990;2023-04-01T18:20:14;0.73;;;0.73;;
12110;SDS011;6119;52.372;8.990;2023-04-01T18:23:23;0.60;;;0.60;;
12110;SDS011;6119;52.372;8.990;2023-04-01T18:26:19;0.70;;;0.70;;
12110;SDS011;6119;52.372;8.990;2023-04-01T18:29:11;0.90;;;0.80;;
12110;SDS011;6119;52.372;8.990;2023-04-01T18:32:08;0.97;;;0.70;;
12110;SDS011;6119;52.372;8.990;2023-04-01T18:35:07;0.60;;;0.60;;
12110;SDS011;6119;52.372;8.990;2023-04-01T18:38:04;0.70;;;0.70;;
12110;SDS011;6119;52.372;8.990;2023-04-01T18:41:06;0.60;;;0.60;;
12110;SDS011;6119;52.372;8.990;2023-04-01T18:44:03;1.00;;;0.90;;
12110;SDS011;6119;52.372;8.990;2023-04-01T18:47:02;0.63;;;0.63;;
12110;SDS011;6119;52.372;8.990;2023-04-01T18:49:55;0.60;;;0.60;;
12110;SDS011;6119;52.372;8.990;2023-04-01T18:52:47;1.30;;;0.60;;
12110;SDS011;6119;52.372;8.990;2023-04-01T18:55:39;0.60;;;0.60;;
12110;SDS011;6119;52.372;8.990;2023-04-01T18:58:33;0.60;;;0.50;;
12110;SDS011;6119;52.372;8.990;2023-04-01T19:01:23;1.50;;;0.73;;
12110;SDS011;6119;52.372;8.990;2023-04-01T19:04:16;0.80;;;0.80;;
12110;SDS011;6119;52.372;8.990;2023-04-01T19:10:31;1.33;;;0.90;;
12110;SDS011;6119;52.372;8.990;2023-04-01T19:13:26;1.07;;;0.80;;
12110;SDS011;6119;52.372;8.990;2023-04-01T19:16:24;1.70;;;0.97;;
12110;SDS011;6119;52.372;8.990;2023-04-01T19:19:29;0.90;;;0.90;;
12110;SDS011;6119;52.372;8.990;2023-04-01T19:22:34;1.10;;;1.00;;
12110;SDS011;6119;52.372;8.990;2023-04-01T19:25:38;1.27;;;1.00;;
12110;SDS011;6119;52.372;8.990;2023-04-01T19:28:31;0.80;;;0.80;;
12110;SDS011;6119;52.372;8.990;2023-04-01T19:31:35;0.80;;;0.80;;